sensor_id;sensor_type;location;lat;lon;timestamp;temperature;humidity
5578;DHT22;2811;51.900;10.734;2023-03-23T00:02:25;13.90;99.90
5578;DHT22;2811;51.900;10.734;2023-03-23T00:04:53;14.00;99.90
5578;DHT22;2811;51.900;10.734;2023-03-23T00:07:20;14.00;99.90
5578;DHT22;2811;51.900;10.734;2023-03-23T00:09:47;14.00;99.90
5578;DHT22;2811;51.900;10.734;2023-03-23T00:12:19;14.10;99.90
5578;DHT22;2811;51.900;10.734;2023-03-23T00:14:45;14.00;99.90
5578;DHT22;2811;51.900;10.734;2023-03-23T00:17:13;14.10;99.90
5578;DHT22;2811;51.900;10.734;2023-03-23T00:19:40;14.00;99.90
5578;DHT22;2811;51.900;10.734;2023-03-23T00:22:13;14.00;99.90
5578;DHT22;2811;51.900;10.734;2023-03-23T00:24:40;14.00;99.90
5578;DHT22;2811;51.900;10.734;2023-03-23T00:27:07;14.10;99.90
5578;DHT22;2811;51.900;10.734;2023-03-23T00:29:34;14.10;99.90
5578;DHT22;2811;51.900;10.734;2023-03-23T00:32:01;14.10;99.90
5578;DHT22;2811;51.900;10.734;2023-03-23T00:34:28;14.10;99.90
5578;DHT22;2811;51.900;10.734;2023-03-23T00:37:00;14.10;99.90
5578;DHT22;2811;51.900;10.734;2023-03-23T00:39:28;14.00;99.90
5578;DHT22;2811;51.900;10.734;2023-03-23T00:41:55;14.00;99.90
5578;DHT22;2811;51.900;10.734;2023-03-23T00:44:26;14.00;99.90
5578;DHT22;2811;51.900;10.734;2023-03-23T00:46:54;14.00;99.90
5578;DHT22;2811;51.900;10.734;2023-03-23T00:49:22;14.10;99.90
5578;DHT22;2811;51.900;10.734;2023-03-23T00:51:51;14.10;99.90
5578;DHT22;2811;51.900;10.734;2023-03-23T00:54:18;14.00;99.90
5578;DHT22;2811;51.900;10.734;2023-03-23T00:56:46;14.00;99.90
5578;DHT22;2811;51.900;10.734;2023-03-23T00:59:13;14.10;99.90
5578;DHT22;2811;51.900;10.734;2023-03-23T01:01:40;14.00;99.90
5578;DHT22;2811;51.900;10.734;2023-03-23T01:04:08;14.00;99.90
5578;DHT22;2811;51.900;10.734;2023-03-23T01:06:41;14.10;99.90
5578;DHT22;2811;51.900;10.734;2023-03-23T01:09:10;14.00;99.90
5578;DHT22;2811;51.900;10.734;2023-03-23T01:11:40;14.10;99.90
5578;DHT22;2811;51.900;10.734;2023-03-23T01:14:08;14.00;99.90
5578;DHT22;2811;51.900;10.734;2023-03-23T01:16:35;13.90;99.90
5578;DHT22;2811;51.900;10.734;2023-03-23T01:19:02;14.00;99.90
5578;DHT22;2811;51.900;10.734;2023-03-23T01:21:29;14.00;99.90
5578;DHT22;2811;51.900;10.734;2023-03-23T01:23:56;14.00;99.90
5578;DHT22;2811;51.900;10.734;2023-03-23T01:26:25;14.00;99.90
5578;DHT22;2811;51.900;10.734;2023-03-23T01:28:52;13.90;99.90
5578;DHT22;2811;51.900;10.734;2023-03-23T01:31:22;13.90;99.90
5578;DHT22;2811;51.900;10.734;2023-03-23T01:33:49;13.90;99.90
5578;DHT22;2811;51.900;10.734;2023-03-23T01:36:18;13.80;99.90
5578;DHT22;2811;51.900;10.734;2023-03-23T01:38:47;13.80;99.90
5578;DHT22;2811;51.900;10.734;2023-03-23T01:41:15;13.80;99.90
5578;DHT22;2811;51.900;10.734;2023-03-23T01:44:03;13.70;99.90
5578;DHT22;2811;51.900;10.734;2023-03-23T01:46:32;13.50;99.90
5578;DHT22;2811;51.900;10.734;2023-03-23T01:49:02;13.30;99.90
5578;DHT22;2811;51.900;10.734;2023-03-23T01:51:34;13.10;99.90
5578;DHT22;2811;51.900;10.734;2023-03-23T01:54:05;13.00;99.90
5578;DHT22;2811;51.900;10.734;2023-03-23T01:56:36;13.00;99.90
5578;DHT22;2811;51.900;10.734;2023-03-23T01:59:06;12.70;99.90
5578;DHT22;2811;51.900;10.734;2023-03-23T02:01:35;12.70;99.90
5578;DHT22;2811;51.900;10.734;2023-03-23T02:04:05;12.70;99.90
5578;DHT22;2811;51.900;10.734;2023-03-23T02:06:32;12.70;99.90
5578;DHT22;2811;51.900;10.734;2023-03-23T02:08:59;12.70;99.90
5578;DHT22;2811;51.900;10.734;2023-03-23T02:11:26;12.60;99.90
5578;DHT22;2811;51.900;10.734;2023-03-23T02:13:53;12.50;99.90
5578;DHT22;2811;51.900;10.734;2023-03-23T02:16:28;12.40;99.90
5578;DHT22;2811;51.900;10.734;2023-03-23T02:19:07;12.40;99.90
5578;DHT22;2811;51.900;10.734;2023-03-23T02:21:59;12.50;99.90
5578;DHT22;2811;51.900;10.734;2023-03-23T02:25:01;12.50;99.90
5578;DHT22;2811;51.900;10.734;2023-03-23T02:28:04;12.60;99.90
5578;DHT22;2811;51.900;10.734;2023-03-23T02:31:05;12.70;99.90
5578;DHT22;2811;51.900;10.734;2023-03-23T02:33:44;12.70;99.90
5578;DHT22;2811;51.900;10.734;2023-03-23T02:36:19;12.70;99.90
5578;DHT22;2811;51.900;10.734;2023-03-23T02:38:57;12.80;99.90
5578;DHT22;2811;51.900;10.734;2023-03-23T02:41:30;12.70;99.90
5578;DHT22;2811;51.900;10.734;2023-03-23T02:43:58;12.70;99.90
5578;DHT22;2811;51.900;10.734;2023-03-23T02:46:26;12.60;99.90
5578;DHT22;2811;51.900;10.734;2023-03-23T02:48:55;12.60;99.90
5578;DHT22;2811;51.900;10.734;2023-03-23T02:51:24;12.70;99.90
5578;DHT22;2811;51.900;10.734;2023-03-23T02:53:53;12.70;99.90
5578;DHT22;2811;51.900;10.734;2023-03-23T02:56:24;12.70;99.90
5578;DHT22;2811;51.900;10.734;2023-03-23T02:58:53;12.80;99.90
5578;DHT22;2811;51.900;10.734;2023-03-23T03:04:26;12.70;99.90
5578;DHT22;2811;51.900;10.734;2023-03-23T03:09:47;12.90;99.90
5578;DHT22;2811;51.900;10.734;2023-03-23T03:12:20;12.90;99.90
5578;DHT22;2811;51.900;10.734;2023-03-23T03:14:55;13.00;99.90
5578;DHT22;2811;51.900;10.734;2023-03-23T03:17:25;12.90;99.90
5578;DHT22;2811;51.900;10.734;2023-03-23T03:19:56;12.80;99.90
5578;DHT22;2811;51.900;10.734;2023-03-23T03:22:25;12.70;99.90
5578;DHT22;2811;51.900;10.734;2023-03-23T03:24:56;12.80;99.90
5578;DHT22;2811;51.900;10.734;2023-03-23T03:27:24;12.70;99.90
5578;DHT22;2811;51.900;10.734;2023-03-23T03:29:54;12.70;99.90
5578;DHT22;2811;51.900;10.734;2023-03-23T03:32:24;12.70;99.90
5578;DHT22;2811;51.900;10.734;2023-03-23T03:34:59;12.70;99.90
5578;DHT22;2811;51.900;10.734;2023-03-23T03:37:26;12.70;99.90
5578;DHT22;2811;51.900;10.734;2023-03-23T03:39:53;12.60;99.90
5578;DHT22;2811;51.900;10.734;2023-03-23T03:42:19;12.60;99.90
5578;DHT22;2811;51.900;10.734;2023-03-23T03:44:46;12.50;99.90
5578;DHT22;2811;51.900;10.734;2023-03-23T03:47:13;12.50;99.90
5578;DHT22;2811;51.900;10.734;2023-03-23T03:49:39;12.60;99.90
5578;DHT22;2811;51.900;10.734;2023-03-23T03:52:07;12.50;99.90
5578;DHT22;2811;51.900;10.734;2023-03-23T03:54:35;12.40;99.90
5578;DHT22;2811;51.900;10.734;2023-03-23T03:57:02;12.30;99.90
5578;DHT22;2811;51.900;10.734;2023-03-23T03:59:28;12.30;99.90
5578;DHT22;2811;51.900;10.734;2023-03-23T04:01:56;12.30;99.90
5578;DHT22;2811;51.900;10.734;2023-03-23T04:04:22;12.30;99.90
5578;DHT22;2811;51.900;10.734;2023-03-23T04:06:49;12.30;99.90
5578;DHT22;2811;51.900;10.734;2023-03-23T04:09:17;12.30;99.90
5578;DHT22;2811;51.900;10.734;2023-03-23T04:11:44;12.20;99.90
5578;DHT22;2811;51.900;10.734;2023-03-23T04:14:11;12.20;99.90
5578;DHT22;2811;51.900;10.734;2023-03-23T04:16:38;12.10;99.90
5578;DHT22;2811;51.900;10.734;2023-03-23T04:19:06;12.20;99.90
5578;DHT22;2811;51.900;10.734;2023-03-23T04:21:32;12.30;99.90
5578;DHT22;2811;51.900;10.734;2023-03-23T04:24:00;12.30;99.90
5578;DHT22;2811;51.900;10.734;2023-03-23T04:26:29;12.30;99.90
5578;DHT22;2811;51.900;10.734;2023-03-23T04:28:56;12.30;99.90
5578;DHT22;2811;51.900;10.734;2023-03-23T04:31:24;12.30;99.90
5578;DHT22;2811;51.900;10.734;2023-03-23T04:33:51;12.10;99.90
5578;DHT22;2811;51.900;10.734;2023-03-23T04:36:19;12.10;99.90
5578;DHT22;2811;51.900;10.734;2023-03-23T04:38:48;12.10;99.90
5578;DHT22;2811;51.900;10.734;2023-03-23T04:41:15;12.00;99.90
5578;DHT22;2811;51.900;10.734;2023-03-23T04:43:43;12.00;99.90
5578;DHT22;2811;51.900;10.734;2023-03-23T04:46:10;11.90;99.90
5578;DHT22;2811;51.900;10.734;2023-03-23T04:48:37;11.90;99.90
5578;DHT22;2811;51.900;10.734;2023-03-23T04:51:05;12.00;99.90
5578;DHT22;2811;51.900;10.734;2023-03-23T04:53:32;12.00;99.90
5578;DHT22;2811;51.900;10.734;2023-03-23T04:55:59;12.00;99.90
5578;DHT22;2811;51.900;10.734;2023-03-23T04:58:27;12.10;99.90
5578;DHT22;2811;51.900;10.734;2023-03-23T05:00:56;12.10;99.90
5578;DHT22;2811;51.900;10.734;2023-03-23T05:03:23;12.10;99.90
5578;DHT22;2811;51.900;10.734;2023-03-23T05:05:50;12.10;99.90
5578;DHT22;2811;51.900;10.734;2023-03-23T05:08:18;12.10;99.90
5578;DHT22;2811;51.900;10.734;2023-03-23T05:10:50;12.00;99.90
5578;DHT22;2811;51.900;10.734;2023-03-23T05:13:17;12.00;99.90
5578;DHT22;2811;51.900;10.734;2023-03-23T05:15:44;12.00;99.90
5578;DHT22;2811;51.900;10.734;2023-03-23T05:18:12;12.00;99.90
5578;DHT22;2811;51.900;10.734;2023-03-23T05:20:38;12.10;99.90
5578;DHT22;2811;51.900;10.734;2023-03-23T05:23:07;12.00;99.90
5578;DHT22;2811;51.900;10.734;2023-03-23T05:25:34;12.00;99.90
5578;DHT22;2811;51.900;10.734;2023-03-23T05:28:05;11.90;99.90
5578;DHT22;2811;51.900;10.734;2023-03-23T05:30:32;11.90;99.90
5578;DHT22;2811;51.900;10.734;2023-03-23T05:32:58;11.80;99.90
5578;DHT22;2811;51.900;10.734;2023-03-23T05:35:26;11.70;99.90
5578;DHT22;2811;51.900;10.734;2023-03-23T05:37:53;11.80;99.90
5578;DHT22;2811;51.900;10.734;2023-03-23T05:40:21;11.90;99.90
5578;DHT22;2811;51.900;10.734;2023-03-23T05:42:51;11.90;99.90
5578;DHT22;2811;51.900;10.734;2023-03-23T05:45:20;12.00;99.90
5578;DHT22;2811;51.900;10.734;2023-03-23T05:47:48;12.10;99.90
5578;DHT22;2811;51.900;10.734;2023-03-23T05:50:15;12.20;99.90
5578;DHT22;2811;51.900;10.734;2023-03-23T05:52:44;12.20;99.90
5578;DHT22;2811;51.900;10.734;2023-03-23T05:55:11;12.10;99.90
5578;DHT22;2811;51.900;10.734;2023-03-23T05:57:39;12.10;99.90
5578;DHT22;2811;51.900;10.734;2023-03-23T06:00:07;12.20;99.90
5578;DHT22;2811;51.900;10.734;2023-03-23T06:02:45;12.30;99.90
5578;DHT22;2811;51.900;10.734;2023-03-23T06:05:12;12.30;99.90
5578;DHT22;2811;51.900;10.734;2023-03-23T06:07:39;12.20;99.90
5578;DHT22;2811;51.900;10.734;2023-03-23T06:10:09;12.20;99.90
5578;DHT22;2811;51.900;10.734;2023-03-23T06:12:35;12.20;99.90
5578;DHT22;2811;51.900;10.734;2023-03-23T06:15:03;12.20;99.90
5578;DHT22;2811;51.900;10.734;2023-03-23T06:17:32;12.20;99.90
5578;DHT22;2811;51.900;10.734;2023-03-23T06:19:59;12.30;99.90
5578;DHT22;2811;51.900;10.734;2023-03-23T06:22:25;12.10;99.90
5578;DHT22;2811;51.900;10.734;2023-03-23T06:24:52;12.30;99.90
5578;DHT22;2811;51.900;10.734;2023-03-23T06:27:23;12.30;99.90
5578;DHT22;2811;51.900;10.734;2023-03-23T06:29:50;12.20;99.90
5578;DHT22;2811;51.900;10.734;2023-03-23T06:32:17;12.10;99.90
5578;DHT22;2811;51.900;10.734;2023-03-23T06:34:43;12.20;99.90
5578;DHT22;2811;51.900;10.734;2023-03-23T06:37:11;12.30;99.90
5578;DHT22;2811;51.900;10.734;2023-03-23T06:39:38;12.30;99.90
5578;DHT22;2811;51.900;10.734;2023-03-23T06:42:09;12.30;99.90
5578;DHT22;2811;51.900;10.734;2023-03-23T06:44:37;12.20;99.90
5578;DHT22;2811;51.900;10.734;2023-03-23T06:47:04;12.20;99.90
5578;DHT22;2811;51.900;10.734;2023-03-23T06:49:31;12.20;99.90
5578;DHT22;2811;51.900;10.734;2023-03-23T06:51:58;12.30;99.90
5578;DHT22;2811;51.900;10.734;2023-03-23T06:54:27;12.30;99.90
5578;DHT22;2811;51.900;10.734;2023-03-23T06:56:53;12.30;99.90
5578;DHT22;2811;51.900;10.734;2023-03-23T06:59:20;12.40;99.90
5578;DHT22;2811;51.900;10.734;2023-03-23T07:01:48;12.40;99.90
5578;DHT22;2811;51.900;10.734;2023-03-23T07:04:15;12.50;99.90
5578;DHT22;2811;51.900;10.734;2023-03-23T07:06:42;12.40;99.90
5578;DHT22;2811;51.900;10.734;2023-03-23T07:09:09;12.50;99.90
5578;DHT22;2811;51.900;10.734;2023-03-23T07:11:35;12.50;99.90
5578;DHT22;2811;51.900;10.734;2023-03-23T07:14:02;12.50;99.90
5578;DHT22;2811;51.900;10.734;2023-03-23T07:16:30;12.60;99.90
5578;DHT22;2811;51.900;10.734;2023-03-23T07:18:58;12.60;99.90
5578;DHT22;2811;51.900;10.734;2023-03-23T07:21:25;12.70;99.90
5578;DHT22;2811;51.900;10.734;2023-03-23T07:23:52;12.80;99.90
5578;DHT22;2811;51.900;10.734;2023-03-23T07:26:19;12.90;99.90
5578;DHT22;2811;51.900;10.734;2023-03-23T07:28:45;12.90;99.90
5578;DHT22;2811;51.900;10.734;2023-03-23T07:31:12;13.00;99.90
5578;DHT22;2811;51.900;10.734;2023-03-23T07:33:39;13.00;99.90
5578;DHT22;2811;51.900;10.734;2023-03-23T07:36:08;13.00;99.90
5578;DHT22;2811;51.900;10.734;2023-03-23T07:38:35;13.00;99.90
5578;DHT22;2811;51.900;10.734;2023-03-23T07:41:02;13.00;99.90
5578;DHT22;2811;51.900;10.734;2023-03-23T07:43:29;13.10;99.90
5578;DHT22;2811;51.900;10.734;2023-03-23T07:45:55;13.10;99.90
5578;DHT22;2811;51.900;10.734;2023-03-23T07:48:22;13.10;99.90
5578;DHT22;2811;51.900;10.734;2023-03-23T07:50:49;13.20;99.90
5578;DHT22;2811;51.900;10.734;2023-03-23T07:53:17;13.10;99.90
5578;DHT22;2811;51.900;10.734;2023-03-23T07:55:44;13.10;99.90
5578;DHT22;2811;51.900;10.734;2023-03-23T07:58:10;13.00;99.90
5578;DHT22;2811;51.900;10.734;2023-03-23T08:00:43;13.00;99.90
5578;DHT22;2811;51.900;10.734;2023-03-23T08:03:11;13.00;99.90
5578;DHT22;2811;51.900;10.734;2023-03-23T08:05:37;13.10;99.90
5578;DHT22;2811;51.900;10.734;2023-03-23T08:08:04;13.10;99.90
5578;DHT22;2811;51.900;10.734;2023-03-23T08:10:33;13.20;99.90
5578;DHT22;2811;51.900;10.734;2023-03-23T08:13:00;13.20;99.90
5578;DHT22;2811;51.900;10.734;2023-03-23T08:15:28;13.30;99.90
5578;DHT22;2811;51.900;10.734;2023-03-23T08:17:55;13.30;99.90
5578;DHT22;2811;51.900;10.734;2023-03-23T08:20:22;13.30;99.90
5578;DHT22;2811;51.900;10.734;2023-03-23T08:22:53;13.30;99.90
5578;DHT22;2811;51.900;10.734;2023-03-23T08:25:21;13.40;99.90
5578;DHT22;2811;51.900;10.734;2023-03-23T08:27:51;13.50;99.90
5578;DHT22;2811;51.900;10.734;2023-03-23T08:30:19;13.40;99.90
5578;DHT22;2811;51.900;10.734;2023-03-23T08:32:47;13.50;99.90
5578;DHT22;2811;51.900;10.734;2023-03-23T08:35:15;13.50;99.90
5578;DHT22;2811;51.900;10.734;2023-03-23T08:37:42;13.50;99.90
5578;DHT22;2811;51.900;10.734;2023-03-23T08:40:13;13.70;99.90
5578;DHT22;2811;51.900;10.734;2023-03-23T08:42:41;13.80;99.90
5578;DHT22;2811;51.900;10.734;2023-03-23T08:45:12;14.00;99.90
5578;DHT22;2811;51.900;10.734;2023-03-23T08:47:41;14.00;99.90
5578;DHT22;2811;51.900;10.734;2023-03-23T08:50:11;14.00;99.90
5578;DHT22;2811;51.900;10.734;2023-03-23T08:52:38;14.10;99.90
5578;DHT22;2811;51.900;10.734;2023-03-23T08:55:06;14.20;99.90
5578;DHT22;2811;51.900;10.734;2023-03-23T08:57:34;14.30;99.90
5578;DHT22;2811;51.900;10.734;2023-03-23T09:00:02;14.40;99.90
5578;DHT22;2811;51.900;10.734;2023-03-23T09:02:40;14.50;99.90
5578;DHT22;2811;51.900;10.734;2023-03-23T09:05:07;14.50;99.90
5578;DHT22;2811;51.900;10.734;2023-03-23T09:07:35;14.60;99.90
5578;DHT22;2811;51.900;10.734;2023-03-23T09:12:30;14.70;99.90
5578;DHT22;2811;51.900;10.734;2023-03-23T09:14:56;14.60;99.90
5578;DHT22;2811;51.900;10.734;2023-03-23T09:17:23;14.50;99.90
5578;DHT22;2811;51.900;10.734;2023-03-23T09:19:52;14.70;99.90
5578;DHT22;2811;51.900;10.734;2023-03-23T09:22:18;14.90;99.90
5578;DHT22;2811;51.900;10.734;2023-03-23T09:24:48;14.90;99.90
5578;DHT22;2811;51.900;10.734;2023-03-23T09:27:15;15.00;99.90
5578;DHT22;2811;51.900;10.734;2023-03-23T09:29:42;15.10;99.90
5578;DHT22;2811;51.900;10.734;2023-03-23T09:32:09;15.00;99.90
5578;DHT22;2811;51.900;10.734;2023-03-23T09:34:38;15.20;99.90
5578;DHT22;2811;51.900;10.734;2023-03-23T09:37:07;15.20;99.90
5578;DHT22;2811;51.900;10.734;2023-03-23T09:39:34;15.00;99.90
5578;DHT22;2811;51.900;10.734;2023-03-23T09:42:13;14.80;99.90
5578;DHT22;2811;51.900;10.734;2023-03-23T09:44:51;14.90;99.90
5578;DHT22;2811;51.900;10.734;2023-03-23T09:47:30;14.80;99.90
5578;DHT22;2811;51.900;10.734;2023-03-23T09:50:04;14.90;99.90
5578;DHT22;2811;51.900;10.734;2023-03-23T09:52:39;15.00;99.90
5578;DHT22;2811;51.900;10.734;2023-03-23T09:55:10;15.00;99.90
5578;DHT22;2811;51.900;10.734;2023-03-23T09:57:43;15.20;99.90
5578;DHT22;2811;51.900;10.734;2023-03-23T10:00:15;15.20;99.90
5578;DHT22;2811;51.900;10.734;2023-03-23T10:02:48;15.30;99.90
5578;DHT22;2811;51.900;10.734;2023-03-23T10:05:29;15.40;99.90
5578;DHT22;2811;51.900;10.734;2023-03-23T10:07:58;15.30;99.90
5578;DHT22;2811;51.900;10.734;2023-03-23T10:10:31;15.40;99.90
5578;DHT22;2811;51.900;10.734;2023-03-23T10:13:04;15.40;99.90
5578;DHT22;2811;51.900;10.734;2023-03-23T10:15:36;15.30;99.90
5578;DHT22;2811;51.900;10.734;2023-03-23T10:18:12;15.30;99.90
5578;DHT22;2811;51.900;10.734;2023-03-23T10:20:43;15.20;99.90
5578;DHT22;2811;51.900;10.734;2023-03-23T10:23:35;15.20;99.90
5578;DHT22;2811;51.900;10.734;2023-03-23T10:26:08;14.90;99.90
5578;DHT22;2811;51.900;10.734;2023-03-23T10:28:39;14.80;99.90
5578;DHT22;2811;51.900;10.734;2023-03-23T10:31:10;14.80;99.90
5578;DHT22;2811;51.900;10.734;2023-03-23T10:33:40;15.10;99.90
5578;DHT22;2811;51.900;10.734;2023-03-23T10:36:12;15.10;99.90
5578;DHT22;2811;51.900;10.734;2023-03-23T10:38:44;15.30;99.90
5578;DHT22;2811;51.900;10.734;2023-03-23T10:41:14;15.20;99.90
5578;DHT22;2811;51.900;10.734;2023-03-23T10:43:42;15.20;99.90
5578;DHT22;2811;51.900;10.734;2023-03-23T10:46:19;15.20;99.90
5578;DHT22;2811;51.900;10.734;2023-03-23T10:48:49;15.30;99.90
5578;DHT22;2811;51.900;10.734;2023-03-23T10:51:20;15.30;99.90
5578;DHT22;2811;51.900;10.734;2023-03-23T10:53:56;15.30;99.90
5578;DHT22;2811;51.900;10.734;2023-03-23T10:56:24;15.70;99.90
5578;DHT22;2811;51.900;10.734;2023-03-23T10:58:53;15.90;99.90
5578;DHT22;2811;51.900;10.734;2023-03-23T11:01:28;15.90;99.90
5578;DHT22;2811;51.900;10.734;2023-03-23T11:03:55;15.70;99.90
5578;DHT22;2811;51.900;10.734;2023-03-23T11:06:24;15.70;99.90
5578;DHT22;2811;51.900;10.734;2023-03-23T11:08:55;15.60;99.90
5578;DHT22;2811;51.900;10.734;2023-03-23T11:11:26;15.80;99.90
5578;DHT22;2811;51.900;10.734;2023-03-23T11:13:57;15.90;99.90
5578;DHT22;2811;51.900;10.734;2023-03-23T11:16:26;15.90;99.90
5578;DHT22;2811;51.900;10.734;2023-03-23T11:18:53;15.80;99.90
5578;DHT22;2811;51.900;10.734;2023-03-23T11:21:22;15.60;99.90
5578;DHT22;2811;51.900;10.734;2023-03-23T11:23:51;15.80;99.90
5578;DHT22;2811;51.900;10.734;2023-03-23T11:26:22;15.80;99.90
5578;DHT22;2811;51.900;10.734;2023-03-23T11:28:54;15.90;99.90
5578;DHT22;2811;51.900;10.734;2023-03-23T11:31:22;15.90;99.90
5578;DHT22;2811;51.900;10.734;2023-03-23T11:33:53;15.80;99.90
5578;DHT22;2811;51.900;10.734;2023-03-23T11:36:29;15.60;99.90
5578;DHT22;2811;51.900;10.734;2023-03-23T11:38:57;15.60;99.90
5578;DHT22;2811;51.900;10.734;2023-03-23T11:41:32;15.60;99.90
5578;DHT22;2811;51.900;10.734;2023-03-23T11:44:07;15.60;99.90
5578;DHT22;2811;51.900;10.734;2023-03-23T11:46:41;15.70;99.90
5578;DHT22;2811;51.900;10.734;2023-03-23T11:49:15;16.00;99.90
5578;DHT22;2811;51.900;10.734;2023-03-23T11:51:47;16.10;99.90
5578;DHT22;2811;51.900;10.734;2023-03-23T11:54:18;15.80;99.90
5578;DHT22;2811;51.900;10.734;2023-03-23T11:56:48;16.00;99.90
5578;DHT22;2811;51.900;10.734;2023-03-23T11:59:16;16.10;99.90
5578;DHT22;2811;51.900;10.734;2023-03-23T12:01:47;16.30;99.90
5578;DHT22;2811;51.900;10.734;2023-03-23T12:04:30;16.40;99.90
5578;DHT22;2811;51.900;10.734;2023-03-23T12:07:10;16.70;99.90
5578;DHT22;2811;51.900;10.734;2023-03-23T12:09:45;16.90;99.90
5578;DHT22;2811;51.900;10.734;2023-03-23T12:12:21;16.90;99.90
5578;DHT22;2811;51.900;10.734;2023-03-23T12:14:56;16.70;99.90
5578;DHT22;2811;51.900;10.734;2023-03-23T12:17:34;17.00;99.90
5578;DHT22;2811;51.900;10.734;2023-03-23T12:20:15;17.00;99.90
5578;DHT22;2811;51.900;10.734;2023-03-23T12:22:52;17.20;99.90
5578;DHT22;2811;51.900;10.734;2023-03-23T12:25:43;16.90;99.90
5578;DHT22;2811;51.900;10.734;2023-03-23T12:28:20;16.70;99.90
5578;DHT22;2811;51.900;10.734;2023-03-23T12:30:52;16.90;99.90
5578;DHT22;2811;51.900;10.734;2023-03-23T12:33:26;17.00;99.90
5578;DHT22;2811;51.900;10.734;2023-03-23T12:36:03;17.10;99.90
5578;DHT22;2811;51.900;10.734;2023-03-23T12:38:44;17.20;99.90
5578;DHT22;2811;51.900;10.734;2023-03-23T12:41:18;17.30;99.90
5578;DHT22;2811;51.900;10.734;2023-03-23T12:43:52;17.20;99.90
5578;DHT22;2811;51.900;10.734;2023-03-23T12:46:43;17.30;99.90
5578;DHT22;2811;51.900;10.734;2023-03-23T12:49:18;17.10;99.90
5578;DHT22;2811;51.900;10.734;2023-03-23T12:51:52;17.10;99.90
5578;DHT22;2811;51.900;10.734;2023-03-23T12:54:24;16.70;99.90
5578;DHT22;2811;51.900;10.734;2023-03-23T12:56:56;16.60;99.90
5578;DHT22;2811;51.900;10.734;2023-03-23T12:59:33;16.80;99.90
5578;DHT22;2811;51.900;10.734;2023-03-23T13:02:06;16.80;99.90
5578;DHT22;2811;51.900;10.734;2023-03-23T13:04:40;16.70;99.90
5578;DHT22;2811;51.900;10.734;2023-03-23T13:07:14;16.70;99.90
5578;DHT22;2811;51.900;10.734;2023-03-23T13:09:48;16.90;99.90
5578;DHT22;2811;51.900;10.734;2023-03-23T13:12:16;16.80;99.90
5578;DHT22;2811;51.900;10.734;2023-03-23T13:14:53;16.80;99.90
5578;DHT22;2811;51.900;10.734;2023-03-23T13:17:29;16.70;99.90
5578;DHT22;2811;51.900;10.734;2023-03-23T13:20:20;16.90;99.90
5578;DHT22;2811;51.900;10.734;2023-03-23T13:22:52;17.10;99.90
5578;DHT22;2811;51.900;10.734;2023-03-23T13:25:28;17.00;99.90
5578;DHT22;2811;51.900;10.734;2023-03-23T13:27:57;17.10;99.90
5578;DHT22;2811;51.900;10.734;2023-03-23T13:30:26;17.10;99.90
5578;DHT22;2811;51.900;10.734;2023-03-23T13:33:02;17.10;99.90
5578;DHT22;2811;51.900;10.734;2023-03-23T13:35:34;17.10;99.90
5578;DHT22;2811;51.900;10.734;2023-03-23T13:38:01;17.20;99.90
5578;DHT22;2811;51.900;10.734;2023-03-23T13:40:42;16.90;99.90
5578;DHT22;2811;51.900;10.734;2023-03-23T13:43:09;16.40;99.90
5578;DHT22;2811;51.900;10.734;2023-03-23T13:45:45;16.20;99.90
5578;DHT22;2811;51.900;10.734;2023-03-23T13:48:21;16.50;99.90
5578;DHT22;2811;51.900;10.734;2023-03-23T13:50:54;16.90;99.90
5578;DHT22;2811;51.900;10.734;2023-03-23T13:53:24;16.80;99.90
5578;DHT22;2811;51.900;10.734;2023-03-23T13:56:06;16.80;99.90
5578;DHT22;2811;51.900;10.734;2023-03-23T13:58:45;17.00;99.90
5578;DHT22;2811;51.900;10.734;2023-03-23T14:01:16;16.90;99.90
5578;DHT22;2811;51.900;10.734;2023-03-23T14:03:46;16.90;99.90
5578;DHT22;2811;51.900;10.734;2023-03-23T14:06:18;17.30;99.90
5578;DHT22;2811;51.900;10.734;2023-03-23T14:08:48;17.50;99.90
5578;DHT22;2811;51.900;10.734;2023-03-23T14:11:19;17.20;99.90
5578;DHT22;2811;51.900;10.734;2023-03-23T14:13:51;17.10;99.90
5578;DHT22;2811;51.900;10.734;2023-03-23T14:16:31;17.50;99.90
5578;DHT22;2811;51.900;10.734;2023-03-23T14:19:00;17.60;99.90
5578;DHT22;2811;51.900;10.734;2023-03-23T14:21:35;17.20;99.90
5578;DHT22;2811;51.900;10.734;2023-03-23T14:24:03;16.90;99.90
5578;DHT22;2811;51.900;10.734;2023-03-23T14:26:34;16.70;99.90
5578;DHT22;2811;51.900;10.734;2023-03-23T14:29:03;16.50;99.90
5578;DHT22;2811;51.900;10.734;2023-03-23T14:31:32;16.30;99.90
5578;DHT22;2811;51.900;10.734;2023-03-23T14:34:03;16.30;99.90
5578;DHT22;2811;51.900;10.734;2023-03-23T14:36:31;16.40;99.90
5578;DHT22;2811;51.900;10.734;2023-03-23T14:39:03;16.20;99.90
5578;DHT22;2811;51.900;10.734;2023-03-23T14:41:31;16.10;99.90
5578;DHT22;2811;51.900;10.734;2023-03-23T14:44:00;16.10;99.90
5578;DHT22;2811;51.900;10.734;2023-03-23T14:46:27;16.00;99.90
5578;DHT22;2811;51.900;10.734;2023-03-23T14:48:59;16.30;99.90
5578;DHT22;2811;51.900;10.734;2023-03-23T14:51:26;16.20;99.90
5578;DHT22;2811;51.900;10.734;2023-03-23T14:53:53;16.20;99.90
5578;DHT22;2811;51.900;10.734;2023-03-23T14:56:22;16.30;99.90
5578;DHT22;2811;51.900;10.734;2023-03-23T14:58:53;16.40;99.90
5578;DHT22;2811;51.900;10.734;2023-03-23T15:01:22;16.40;99.90
5578;DHT22;2811;51.900;10.734;2023-03-23T15:03:53;16.30;99.90
5578;DHT22;2811;51.900;10.734;2023-03-23T15:06:26;16.30;99.90
5578;DHT22;2811;51.900;10.734;2023-03-23T15:08:57;16.40;99.90
5578;DHT22;2811;51.900;10.734;2023-03-23T15:13:55;16.30;99.90
5578;DHT22;2811;51.900;10.734;2023-03-23T15:16:24;16.30;99.90
5578;DHT22;2811;51.900;10.734;2023-03-23T15:18:54;16.10;99.90
5578;DHT22;2811;51.900;10.734;2023-03-23T15:21:26;16.10;99.90
5578;DHT22;2811;51.900;10.734;2023-03-23T15:23:53;16.20;99.90
5578;DHT22;2811;51.900;10.734;2023-03-23T15:26:28;16.20;99.90
5578;DHT22;2811;51.900;10.734;2023-03-23T15:29:12;16.10;99.90
5578;DHT22;2811;51.900;10.734;2023-03-23T15:31:41;16.00;99.90
5578;DHT22;2811;51.900;10.734;2023-03-23T15:34:14;16.20;99.90
5578;DHT22;2811;51.900;10.734;2023-03-23T15:36:43;16.30;99.90
5578;DHT22;2811;51.900;10.734;2023-03-23T15:39:11;16.30;99.90
5578;DHT22;2811;51.900;10.734;2023-03-23T15:41:46;16.60;99.90
5578;DHT22;2811;51.900;10.734;2023-03-23T15:44:30;16.70;99.90
5578;DHT22;2811;51.900;10.734;2023-03-23T15:47:16;16.70;99.90
5578;DHT22;2811;51.900;10.734;2023-03-23T15:49:44;16.70;99.90
5578;DHT22;2811;51.900;10.734;2023-03-23T15:52:13;16.90;99.90
5578;DHT22;2811;51.900;10.734;2023-03-23T15:54:46;17.10;99.90
5578;DHT22;2811;51.900;10.734;2023-03-23T15:57:13;17.10;99.90
5578;DHT22;2811;51.900;10.734;2023-03-23T15:59:39;17.00;99.90
5578;DHT22;2811;51.900;10.734;2023-03-23T16:02:13;16.50;99.90
5578;DHT22;2811;51.900;10.734;2023-03-23T16:04:41;15.90;99.90
5578;DHT22;2811;51.900;10.734;2023-03-23T16:07:08;15.60;99.90
5578;DHT22;2811;51.900;10.734;2023-03-23T16:09:39;15.40;99.90
5578;DHT22;2811;51.900;10.734;2023-03-23T16:12:09;15.10;99.90
5578;DHT22;2811;51.900;10.734;2023-03-23T16:14:37;15.00;99.90
5578;DHT22;2811;51.900;10.734;2023-03-23T16:17:04;15.00;99.90